Time;durP1;ratioP1;P1;durP2;ratioP2;P2;SDS_P1;SDS_P2;PMS_P1;PMS_P2;Temp;Humidity;BMP_temperature;BMP_pressure;BME280_temperature;BME280_humidity;BME280_pressure;Samples;Min_cycle;Max_cycle;Signal;HPM_P1;HPM_P2
2022/01/22 00:02:06;;;;;;;2.30;1.03;;;;;;;9.28;69.89;102389.19;4954743;28;97119;-53
2022/01/22 00:04:34;;;;;;;2.73;1.50;;;;;;;9.28;69.85;102377.44;4962655;28;97337;-53
2022/01/22 00:07:02;;;;;;;1.00;1.00;;;;;;;9.30;70.00;102383.25;4960908;28;97179;-53
2022/01/22 00:09:38;;;;;;;1.27;1.10;;;;;;;9.34;69.83;102381.16;4959328;28;96834;-53
2022/01/22 00:12:07;;;;;;;1.10;1.10;;;;;;;9.35;69.97;102385.44;4960182;28;96889;-52
2022/01/22 00:14:34;;;;;;;1.20;1.00;;;;;;;9.36;70.08;102390.50;4962415;28;96950;-52
2022/01/22 00:17:02;;;;;;;1.13;1.10;;;;;;;9.37;69.89;102383.78;4962904;28;97617;-53
2022/01/22 00:19:29;;;;;;;0.80;0.80;;;;;;;9.36;69.78;102382.25;4959432;28;97316;-52
2022/01/22 00:21:58;;;;;;;0.93;0.83;;;;;;;9.34;69.78;102387.41;4954883;28;98427;-53
2022/01/22 00:24:25;;;;;;;1.87;1.00;;;;;;;9.38;70.02;102376.31;4960636;28;98446;-52
2022/01/22 00:26:53;;;;;;;1.17;1.07;;;;;;;9.37;69.92;102377.53;4957729;28;97336;-53
2022/01/22 00:29:20;;;;;;;0.90;0.90;;;;;;;9.39;69.93;102372.38;4952221;28;96979;-52
2022/01/22 00:31:46;;;;;;;1.00;1.00;;;;;;;9.42;69.88;102372.22;4961738;28;98640;-52
2022/01/22 00:34:13;;;;;;;1.13;1.00;;;;;;;9.44;69.84;102367.06;4961113;28;96757;-53
2022/01/22 00:36:43;;;;;;;1.00;1.00;;;;;;;9.42;69.64;102369.50;4960705;28;97247;-53
2022/01/22 00:39:10;;;;;;;0.80;0.80;;;;;;;9.44;69.74;102369.03;4962399;28;96881;-53
2022/01/22 00:41:37;;;;;;;0.87;0.87;;;;;;;9.41;69.86;102365.22;4957497;28;97910;-53
2022/01/22 00:44:04;;;;;;;1.17;1.07;;;;;;;9.41;69.91;102376.22;4955910;28;97441;-53
2022/01/22 00:46:31;;;;;;;1.70;1.07;;;;;;;9.41;69.85;102381.72;4959291;28;97052;-53
2022/01/22 00:48:58;;;;;;;1.17;1.03;;;;;;;9.42;69.99;102383.22;4957633;28;97367;-54
2022/01/22 00:51:25;;;;;;;1.67;1.57;;;;;;;9.41;70.03;102380.94;4961738;28;97327;-52
2022/01/22 00:53:52;;;;;;;1.50;1.40;;;;;;;9.40;70.02;102376.63;4961315;28;97788;-52
2022/01/22 00:56:18;;;;;;;1.10;1.10;;;;;;;9.42;70.08;102371.47;4959359;28;97720;-53
2022/01/22 00:58:44;;;;;;;1.20;1.00;;;;;;;9.44;70.16;102366.28;4959798;28;97565;-53
2022/01/22 01:01:11;;;;;;;5.27;1.50;;;;;;;9.45;70.17;102373.34;4961064;28;97559;-53
2022/01/22 01:03:37;;;;;;;1.07;1.07;;;;;;;9.46;70.03;102380.34;4955819;28;98531;-53
2022/01/22 01:06:05;;;;;;;1.17;1.07;;;;;;;9.45;70.03;102376.09;4959676;28;96913;-53
2022/01/22 01:08:34;;;;;;;1.83;0.90;;;;;;;9.45;70.14;102381.56;4956253;28;97006;-53
2022/01/22 01:11:01;;;;;;;1.47;1.37;;;;;;;9.46;70.05;102375.63;4957749;28;97133;-52
2022/01/22 01:13:31;;;;;;;1.70;1.60;;;;;;;9.47;69.96;102377.19;4958525;28;97608;-53
2022/01/22 01:16:16;;;;;;;1.43;1.33;;;;;;;9.48;69.98;102380.72;4962161;28;97348;-53
2022/01/22 01:33:07;;;;;;;1.97;1.80;;;;;;;9.49;70.08;102371.22;4959767;28;96857;-52
2022/01/22 01:35:22;;;;;;;1.20;1.10;;;;;;;9.48;70.15;102378.69;4956225;28;100089;-52
2022/01/22 01:37:49;;;;;;;1.10;1.00;;;;;;;9.50;70.22;102384.53;4960475;28;97846;-53
2022/01/22 01:40:19;;;;;;;1.23;1.20;;;;;;;9.54;69.98;102373.44;4954033;28;97390;-53
2022/01/22 01:43:07;;;;;;;1.27;1.17;;;;;;;9.52;70.03;102376.59;4967039;28;98714;-53
2022/01/22 01:45:31;;;;;;;1.57;1.47;;;;;;;9.52;70.10;102379.34;4962220;28;97102;-52
2022/01/22 01:48:04;;;;;;;1.07;1.00;;;;;;;9.51;70.12;102372.34;4962574;28;97083;-53
2022/01/22 01:50:33;;;;;;;1.87;1.40;;;;;;;9.49;70.32;102379.47;4963895;28;96886;-53
2022/01/22 01:53:12;;;;;;;1.07;1.07;;;;;;;9.52;70.24;102381.34;4961681;28;97538;-53
2022/01/22 01:58:14;;;;;;;1.13;1.10;;;;;;;9.57;70.04;102375.28;4964446;28;96911;-53
2022/01/22 02:00:41;;;;;;;1.40;0.90;;;;;;;9.60;70.03;102382.66;4962730;28;96988;-52
2022/01/22 02:03:09;;;;;;;1.03;1.03;;;;;;;9.59;70.04;102392.09;4957750;28;97509;-53
2022/01/22 02:05:37;;;;;;;1.00;0.90;;;;;;;9.60;70.05;102388.16;4963756;28;96930;-53
2022/01/22 02:08:04;;;;;;;5.70;1.10;;;;;;;9.59;70.09;102395.59;4965739;28;96917;-53
2022/01/22 02:10:34;;;;;;;1.13;1.10;;;;;;;9.58;70.01;102405.06;4964773;28;96951;-52
2022/01/22 02:23:59;;;;;;;1.33;1.23;;;;;;;9.52;70.49;102414.31;4961232;28;101682;-52
2022/01/22 02:26:24;;;;;;;1.50;1.40;;;;;;;9.53;70.44;102422.13;4962197;28;98722;-53
2022/01/22 02:28:52;;;;;;;3.27;1.50;;;;;;;9.54;70.50;102431.13;4964109;28;97090;-53
2022/01/22 02:31:27;;;;;;;1.47;1.37;;;;;;;9.55;70.47;102424.41;4961087;28;97397;-53
2022/01/22 02:34:04;;;;;;;1.40;1.30;;;;;;;9.57;70.47;102425.50;4962839;28;101948;-52
2022/01/22 02:36:40;;;;;;;4.87;1.97;;;;;;;9.60;70.42;102413.66;4960025;28;102959;-54
2022/01/22 02:39:16;;;;;;;2.57;1.47;;;;;;;9.62;70.30;102419.47;4962485;28;96743;-53
2022/01/22 02:41:47;;;;;;;2.30;1.70;;;;;;;9.63;70.50;102425.75;4962836;28;96841;-53
2022/01/22 02:44:21;;;;;;;2.40;2.20;;;;;;;9.61;70.36;102426.16;4962860;28;99414;-53
2022/01/22 02:46:48;;;;;;;1.97;1.87;;;;;;;9.60;70.49;102426.59;4962226;28;97472;-52
2022/01/22 02:49:14;;;;;;;4.10;1.80;;;;;;;9.62;70.45;102430.47;4961308;28;97238;-52
2022/01/22 02:51:39;;;;;;;1.90;1.80;;;;;;;9.63;70.52;102434.72;4962782;28;96823;-52
2022/01/22 02:54:05;;;;;;;2.93;1.73;;;;;;;9.65;70.54;102439.81;4962680;28;97582;-53
2022/01/22 02:56:31;;;;;;;3.17;1.20;;;;;;;9.65;70.54;102445.31;4960188;28;97456;-52
2022/01/22 02:58:59;;;;;;;3.03;1.67;;;;;;;9.64;70.47;102454.75;4965006;28;99683;-52
2022/01/22 03:01:24;;;;;;;2.27;1.77;;;;;;;9.64;70.65;102446.50;4961255;28;97719;-52
2022/01/22 03:03:50;;;;;;;3.03;2.03;;;;;;;9.62;70.77;102446.16;4961815;28;97049;-52
2022/01/22 03:06:15;;;;;;;2.13;1.90;;;;;;;9.63;70.63;102450.47;4961287;28;98349;-52
2022/01/22 03:08:43;;;;;;;3.23;1.70;;;;;;;9.64;70.67;102449.25;4964061;28;97112;-52
2022/01/22 03:11:18;;;;;;;5.77;2.13;;;;;;;9.66;70.61;102455.84;4961192;28;97157;-53
2022/01/22 03:18:57;;;;;;;6.23;1.90;;;;;;;9.74;70.44;102461.91;4961886;28;97166;-53
2022/01/22 03:29:31;;;;;;;1.70;1.37;;;;;;;9.74;70.47;102461.91;4961260;28;97613;-53
2022/01/22 03:31:56;;;;;;;1.77;1.60;;;;;;;9.76;70.46;102465.72;4942057;28;100231;-53
2022/01/22 03:34:21;;;;;;;2.93;1.50;;;;;;;9.77;70.40;102472.75;4944181;28;97418;-54
2022/01/22 03:36:47;;;;;;;1.50;1.10;;;;;;;9.78;70.37;102471.53;4957857;28;98084;-52
2022/01/22 03:39:12;;;;;;;4.60;1.30;;;;;;;9.79;70.38;102478.59;4957897;28;97997;-52
2022/01/22 03:41:38;;;;;;;1.90;1.30;;;;;;;9.80;70.38;102490.34;4960761;28;100604;-52
2022/01/22 03:44:06;;;;;;;1.50;0.93;;;;;;;9.80;70.32;102485.63;4957258;28;96827;-53
2022/01/22 03:46:32;;;;;;;2.30;1.40;;;;;;;9.81;70.25;102492.66;4962869;28;97111;-52
2022/01/22 03:48:58;;;;;;;2.30;1.73;;;;;;;9.80;70.40;102485.63;4962466;28;97228;-52
2022/01/22 03:51:24;;;;;;;3.00;1.20;;;;;;;9.81;70.43;102480.88;4961453;28;97299;-52
2022/01/22 03:53:49;;;;;;;2.20;1.40;;;;;;;9.82;70.39;102483.22;4962916;28;97653;-52
2022/01/22 03:56:15;;;;;;;2.63;1.17;;;;;;;9.85;70.23;102475.28;4959728;28;100324;-52
2022/01/22 03:58:43;;;;;;;1.37;1.07;;;;;;;9.85;70.21;102489.03;4959211;28;97619;-52
2022/01/22 04:03:58;;;;;;;1.60;1.50;;;;;;;9.87;70.15;102494.84;4953701;28;101889;-54
2022/01/22 04:08:56;;;;;;;3.93;1.17;;;;;;;9.82;70.48;102482.44;4960937;28;96974;-53
2022/01/22 04:11:21;;;;;;;1.87;1.23;;;;;;;9.83;70.34;102481.19;4958347;28;96917;-53
2022/01/22 04:13:50;;;;;;;2.77;1.10;;;;;;;9.86;70.16;102483.09;4960687;28;98304;-52
2022/01/22 04:16:16;;;;;;;2.80;1.60;;;;;;;9.89;70.21;102479.47;4959934;28;97148;-52
2022/01/22 04:29:25;;;;;;;3.27;1.17;;;;;;;9.86;70.24;102488.59;4960023;28;97105;-54
2022/01/22 04:31:51;;;;;;;1.73;1.27;;;;;;;9.85;70.20;102491.78;4961522;28;97360;-51
2022/01/22 04:34:16;;;;;;;3.23;1.57;;;;;;;9.84;70.25;102496.50;4959659;28;96836;-53
2022/01/22 04:36:42;;;;;;;2.07;1.27;;;;;;;9.84;70.22;102496.50;4960236;28;96810;-55
2022/01/22 04:39:07;;;;;;;3.93;1.60;;;;;;;9.85;70.20;102497.28;4962261;28;97200;-55
2022/01/22 04:41:33;;;;;;;2.00;1.40;;;;;;;9.82;70.32;102499.69;4958787;28;97329;-51
2022/01/22 04:44:02;;;;;;;1.60;1.50;;;;;;;9.81;70.28;102497.38;4959394;28;98417;-53
2022/01/22 04:46:52;;;;;;;10.37;1.27;;;;;;;9.81;70.31;102520.13;4957054;28;97222;-53
2022/01/22 04:52:30;;;;;;;4.57;1.80;;;;;;;9.83;70.31;102505.94;4957840;28;96999;-53
2022/01/22 04:54:59;;;;;;;4.03;2.50;;;;;;;9.82;70.11;102509.91;4957634;28;101677;-54
2022/01/22 04:57:24;;;;;;;9.23;3.33;;;;;;;9.80;70.15;102501.34;4957053;28;97586;-51
2022/01/22 04:59:50;;;;;;;5.53;2.60;;;;;;;9.75;70.13;102512.88;4959972;28;97105;-56
2022/01/22 05:02:16;;;;;;;5.90;2.33;;;;;;;9.75;70.24;102515.63;4959882;28;96769;-51
2022/01/22 05:04:41;;;;;;;7.20;2.20;;;;;;;9.77;70.32;102518.72;4963739;28;97411;-51
2022/01/22 05:07:06;;;;;;;4.43;1.80;;;;;;;9.76;70.32;102504.19;4960547;28;97300;-52
2022/01/22 05:09:32;;;;;;;4.70;2.30;;;;;;;9.77;70.29;102510.47;4960757;28;97308;-55
2022/01/22 05:11:58;;;;;;;4.33;2.30;;;;;;;9.76;70.26;102517.19;4961271;28;104591;-52
2022/01/22 05:14:24;;;;;;;5.40;1.90;;;;;;;9.73;70.31;102518.06;4961123;28;96752;-51
2022/01/22 05:16:50;;;;;;;2.67;1.70;;;;;;;9.71;70.37;102515.75;4961160;28;97460;-51
2022/01/22 05:19:23;;;;;;;2.57;1.50;;;;;;;9.71;70.40;102517.72;4957673;28;97195;-52
2022/01/22 05:21:51;;;;;;;4.23;1.70;;;;;;;9.70;70.26;102511.47;4959716;28;96954;-51
2022/01/22 05:24:22;;;;;;;6.70;2.27;;;;;;;9.71;70.46;102523.22;4959299;28;98642;-53
2022/01/22 05:27:39;;;;;;;2.63;1.70;;;;;;;9.73;70.32;102518.06;4960120;28;96986;-51
2022/01/22 05:37:49;;;;;;;5.07;2.30;;;;;;;9.70;70.33;102521.69;4959943;28;101258;-51
2022/01/22 05:40:15;;;;;;;4.43;1.50;;;;;;;9.70;70.31;102514.22;4959153;28;97045;-52
2022/01/22 05:42:40;;;;;;;3.30;1.93;;;;;;;9.69;70.28;102515.44;4957434;28;96925;-53
2022/01/22 05:45:07;;;;;;;2.37;1.90;;;;;;;9.68;70.34;102529.59;4961326;28;96879;-51
2022/01/22 05:47:33;;;;;;;10.20;3.07;;;;;;;9.64;70.52;102534.44;4955239;28;97555;-54
2022/01/22 05:50:00;;;;;;;5.40;2.53;;;;;;;9.64;70.67;102531.69;4964025;28;97195;-51
2022/01/22 05:52:35;;;;;;;3.63;2.20;;;;;;;9.67;70.62;102536.31;4958409;28;96904;-51
2022/01/22 06:00:11;;;;;;;3.47;1.73;;;;;;;9.67;70.43;102555.56;4962727;28;96958;-51
2022/01/22 06:02:36;;;;;;;4.80;2.10;;;;;;;9.67;70.29;102559.09;4957826;28;97282;-52
2022/01/22 06:05:02;;;;;;;4.43;2.13;;;;;;;9.65;70.42;102558.72;4961978;28;97681;-52
2022/01/22 06:07:28;;;;;;;5.70;1.90;;;;;;;9.65;70.38;102572.47;4957603;28;100364;-55
2022/01/22 06:12:42;;;;;;;2.27;1.80;;;;;;;9.70;70.31;102569.19;4963086;28;96734;-51
2022/01/22 06:15:08;;;;;;;3.00;1.77;;;;;;;9.68;70.28;102571.59;4959129;28;101481;-51
2022/01/22 06:17:33;;;;;;;2.90;1.27;;;;;;;9.67;70.23;102572.81;4962218;28;96842;-52
2022/01/22 06:19:59;;;;;;;3.57;1.50;;;;;;;9.66;70.38;102571.28;4960085;28;96929;-57
2022/01/22 06:22:24;;;;;;;2.37;1.40;;;;;;;9.64;70.31;102581.94;4956985;28;97247;-54
2022/01/22 06:24:50;;;;;;;1.50;1.40;;;;;;;9.66;70.31;102579.50;4960501;28;98503;-54
2022/01/22 06:27:15;;;;;;;4.00;1.70;;;;;;;9.66;70.30;102584.25;4967746;28;96693;-53
2022/01/22 06:29:41;;;;;;;4.60;2.00;;;;;;;9.69;70.27;102592.38;4964715;28;96837;-51
2022/01/22 06:32:06;;;;;;;1.23;1.13;;;;;;;9.70;70.17;102588.41;4960255;28;97078;-56
2022/01/22 06:34:32;;;;;;;1.20;1.10;;;;;;;9.71;70.18;102589.19;4962286;28;97344;-51
2022/01/22 06:36:58;;;;;;;2.67;1.60;;;;;;;9.67;70.18;102589.31;4962573;28;97071;-54
2022/01/22 06:39:24;;;;;;;1.20;1.10;;;;;;;9.68;70.23;102592.81;4960757;28;97076;-53
2022/01/22 06:41:50;;;;;;;2.73;1.70;;;;;;;9.69;70.05;102602.59;4967297;28;96854;-52
2022/01/22 06:44:21;;;;;;;1.47;1.37;;;;;;;9.69;70.09;102605.34;4961221;28;97108;-55
2022/01/22 06:46:51;;;;;;;3.87;1.77;;;;;;;9.66;70.15;102600.72;4961846;28;96831;-51
2022/01/22 06:49:18;;;;;;;2.63;1.43;;;;;;;9.65;70.21;102610.19;4961318;28;97237;-53
2022/01/22 06:51:44;;;;;;;2.90;1.60;;;;;;;9.67;70.31;102610.53;4962149;28;97386;-52
2022/01/22 06:54:13;;;;;;;3.27;1.53;;;;;;;9.69;70.21;102605.34;4956280;28;97773;-51
2022/01/22 06:56:40;;;;;;;4.40;1.50;;;;;;;9.69;70.13;102606.13;4962774;28;97195;-52
2022/01/22 06:59:10;;;;;;;3.63;1.70;;;;;;;9.69;70.14;102617.13;4961560;28;97446;-52
2022/01/22 07:01:38;;;;;;;2.30;1.10;;;;;;;9.68;70.01;102617.53;4964112;28;96909;-51
2022/01/22 07:04:05;;;;;;;3.90;2.00;;;;;;;9.66;70.08;102618.00;4958623;28;97608;-52
2022/01/22 07:06:32;;;;;;;3.40;1.63;;;;;;;9.67;70.11;102613.28;4965109;28;96741;-51
2022/01/22 07:08:59;;;;;;;3.27;1.93;;;;;;;9.65;70.04;102621.19;4962148;28;97103;-54
2022/01/22 07:11:26;;;;;;;2.27;1.57;;;;;;;9.65;70.20;102632.94;4960607;28;96770;-53
2022/01/22 07:13:53;;;;;;;3.53;2.10;;;;;;;9.65;70.11;102630.19;4957614;28;97006;-51
2022/01/22 07:16:20;;;;;;;5.17;2.03;;;;;;;9.66;70.21;102641.94;4959768;28;98367;-51
2022/01/22 07:18:47;;;;;;;3.00;1.93;;;;;;;9.69;70.18;102632.84;4955753;28;96622;-54
2022/01/22 07:21:20;;;;;;;3.27;2.10;;;;;;;9.68;70.01;102642.28;4959708;28;96832;-53
2022/01/22 07:26:14;;;;;;;5.27;2.67;;;;;;;9.68;70.10;102645.03;4932474;28;97200;-52
2022/01/22 07:28:41;;;;;;;4.23;2.53;;;;;;;9.68;69.98;102647.78;4946411;28;97057;-51
2022/01/22 07:31:09;;;;;;;4.57;2.87;;;;;;;9.67;70.05;102644.28;4961328;28;99370;-50
2022/01/22 07:33:35;;;;;;;5.87;2.77;;;;;;;9.69;69.94;102639.13;4962534;28;97182;-51
2022/01/22 07:36:03;;;;;;;4.87;2.03;;;;;;;9.68;69.96;102642.28;4960260;28;97323;-51
2022/01/22 07:38:30;;;;;;;4.20;2.40;;;;;;;9.69;70.09;102632.84;4958825;28;97091;-53
2022/01/22 07:40:57;;;;;;;9.73;2.57;;;;;;;9.65;70.08;102635.69;4961121;28;97256;-52
2022/01/22 07:43:23;;;;;;;4.83;2.30;;;;;;;9.66;70.00;102634.47;4959637;28;97325;-55
2022/01/22 07:45:50;;;;;;;4.83;3.00;;;;;;;9.65;70.12;102638.44;4958318;28;97589;-51
2022/01/22 07:48:16;;;;;;;7.47;3.13;;;;;;;9.64;70.19;102641.63;4964185;28;96976;-53
2022/01/22 07:50:43;;;;;;;6.27;2.87;;;;;;;9.68;70.21;102637.56;4963295;28;97133;-51
2022/01/22 07:53:09;;;;;;;4.43;2.87;;;;;;;9.71;70.05;102644.94;4964979;28;98667;-53
2022/01/22 07:55:35;;;;;;;7.30;3.20;;;;;;;9.68;70.10;102643.06;4958538;28;96932;-54
2022/01/22 07:58:02;;;;;;;5.53;3.17;;;;;;;9.69;70.03;102638.34;4959669;28;97177;-51
2022/01/22 08:00:29;;;;;;;4.20;2.90;;;;;;;9.72;70.24;102649.22;4962723;28;97277;-53
2022/01/22 08:02:56;;;;;;;9.20;3.17;;;;;;;9.70;70.22;102646.13;4963327;28;96988;-54
2022/01/22 08:05:23;;;;;;;6.17;3.00;;;;;;;9.70;70.17;102653.59;4959485;28;97239;-52
2022/01/22 08:07:49;;;;;;;6.13;2.70;;;;;;;9.71;70.14;102655.16;4962911;28;97066;-51
2022/01/22 08:10:17;;;;;;;5.47;3.03;;;;;;;9.70;70.11;102672.84;4962916;28;96853;-53
2022/01/22 08:12:43;;;;;;;5.87;2.80;;;;;;;9.72;70.19;102656.69;4960220;28;98008;-51
2022/01/22 08:15:14;;;;;;;4.53;2.33;;;;;;;9.69;70.07;102665.81;4959947;28;97210;-51
2022/01/22 08:17:41;;;;;;;4.20;2.57;;;;;;;9.67;69.97;102663.53;4960308;28;97052;-54
2022/01/22 08:20:11;;;;;;;6.40;3.07;;;;;;;9.64;70.22;102661.63;4959051;28;97173;-51
2022/01/22 08:22:38;;;;;;;4.20;2.47;;;;;;;9.64;70.20;102666.34;4961740;28;98240;-51
2022/01/22 08:25:06;;;;;;;6.03;2.40;;;;;;;9.68;70.43;102669.75;4960002;28;97189;-54
2022/01/22 08:27:40;;;;;;;3.30;2.27;;;;;;;9.73;70.19;102670.00;4959971;28;97224;-51
2022/01/22 08:30:09;;;;;;;6.07;3.00;;;;;;;9.75;70.16;102666.81;4959109;28;96921;-53
2022/01/22 08:37:53;;;;;;;6.63;3.43;;;;;;;9.71;70.28;102685.41;4938043;28;97369;-53
2022/01/22 08:40:19;;;;;;;2.97;2.67;;;;;;;9.72;70.36;102682.19;4961879;28;97054;-51
2022/01/22 08:42:46;;;;;;;6.37;2.90;;;;;;;9.76;70.28;102679.38;4961300;28;97440;-51
2022/01/22 08:45:13;;;;;;;2.80;2.50;;;;;;;9.76;70.17;102684.88;4961495;28;97211;-51
2022/01/22 08:47:40;;;;;;;5.07;2.80;;;;;;;9.74;70.08;102684.53;4960902;28;96964;-51
2022/01/22 08:50:07;;;;;;;3.97;2.90;;;;;;;9.76;70.22;102682.13;4962262;28;96930;-53
2022/01/22 08:52:36;;;;;;;4.83;3.10;;;;;;;9.78;70.21;102682.44;4960208;28;96710;-54
2022/01/22 08:55:04;;;;;;;6.40;3.27;;;;;;;9.79;70.27;102689.47;4974642;28;99894;-52
2022/01/22 08:57:31;;;;;;;6.80;2.97;;;;;;;9.80;70.08;102693.78;4959567;28;96970;-52
2022/01/22 08:59:58;;;;;;;3.60;2.80;;;;;;;9.83;70.32;102690.13;4961681;28;97105;-52
2022/01/22 09:02:24;;;;;;;5.20;2.50;;;;;;;9.86;70.22;102685.75;4960653;28;97386;-53
2022/01/22 09:04:53;;;;;;;3.30;2.40;;;;;;;9.92;70.31;102704.00;4957881;28;96859;-52
2022/01/22 09:07:20;;;;;;;3.93;3.00;;;;;;;9.97;70.07;102697.19;4959041;28;96818;-51
2022/01/22 09:09:48;;;;;;;4.53;2.70;;;;;;;10.00;69.98;102699.09;4960850;28;97439;-51
2022/01/22 09:12:16;;;;;;;6.23;2.80;;;;;;;10.02;70.00;102707.66;4957523;28;101115;-52
2022/01/22 09:14:44;;;;;;;6.80;3.10;;;;;;;10.00;69.98;102707.34;4959222;28;97439;-53
2022/01/22 09:17:12;;;;;;;4.60;3.10;;;;;;;10.00;69.93;102713.63;4960895;28;96934;-53
2022/01/22 09:19:39;;;;;;;5.40;3.20;;;;;;;10.00;70.08;102710.09;4960365;28;97102;-52
2022/01/22 09:22:08;;;;;;;4.17;2.80;;;;;;;9.98;70.13;102705.00;4961700;28;97762;-55
2022/01/22 09:24:34;;;;;;;6.73;2.50;;;;;;;10.01;70.13;102709.63;4963191;28;97204;-51
2022/01/22 09:27:05;;;;;;;3.33;2.20;;;;;;;10.02;70.05;102704.91;4957402;28;97194;-56
2022/01/22 09:29:34;;;;;;;4.40;2.20;;;;;;;10.03;70.08;102707.22;4960781;28;97212;-52
2022/01/22 09:32:01;;;;;;;2.00;1.90;;;;;;;10.03;70.17;102712.72;4959416;28;101843;-51
2022/01/22 09:34:27;;;;;;;2.50;1.70;;;;;;;10.01;70.17;102717.88;4961917;28;97871;-56
2022/01/22 09:36:53;;;;;;;2.40;1.70;;;;;;;10.06;70.24;102716.56;4962458;28;97249;-58
2022/01/22 09:39:19;;;;;;;2.77;1.80;;;;;;;10.10;70.28;102723.50;4962165;28;96946;-52
2022/01/22 09:41:45;;;;;;;4.07;2.00;;;;;;;10.15;70.27;102720.25;4960409;28;97419;-53
2022/01/22 09:44:12;;;;;;;4.30;2.07;;;;;;;10.21;70.22;102718.50;4961059;28;101081;-51
2022/01/22 09:46:40;;;;;;;4.43;1.90;;;;;;;10.28;70.24;102728.50;4962551;28;97460;-51
2022/01/22 09:49:06;;;;;;;2.87;2.10;;;;;;;10.31;69.99;102733.91;4957824;28;96957;-52
2022/01/22 09:51:33;;;;;;;2.03;1.20;;;;;;;10.39;70.07;102743.50;4954820;28;97060;-54
2022/01/22 09:53:59;;;;;;;2.73;1.63;;;;;;;10.41;69.94;102738.31;4958132;28;96884;-51
2022/01/22 09:56:28;;;;;;;2.10;1.47;;;;;;;10.43;69.75;102741.41;4955534;28;96857;-53
2022/01/22 09:58:54;;;;;;;1.47;1.23;;;;;;;10.48;69.82;102737.34;4965406;28;97400;-52
2022/01/22 10:01:34;;;;;;;1.43;1.30;;;;;;;10.49;69.80;102744.38;4962325;28;97016;-51
2022/01/22 10:04:06;;;;;;;2.40;1.00;;;;;;;10.49;69.60;102741.59;4962946;28;101628;-52
2022/01/22 10:06:44;;;;;;;1.43;1.10;;;;;;;10.49;69.80;102744.38;4964386;28;97014;-52
2022/01/22 10:09:23;;;;;;;2.20;1.00;;;;;;;10.48;69.76;102756.59;4958891;28;97098;-53
2022/01/22 10:12:09;;;;;;;3.50;0.93;;;;;;;10.43;69.74;102746.13;4957767;28;97874;-51
2022/01/22 10:14:35;;;;;;;1.53;1.20;;;;;;;10.46;69.84;102748.75;4961826;28;96986;-52
2022/01/22 10:17:00;;;;;;;3.17;1.40;;;;;;;10.49;69.79;102750.66;4962508;28;98370;-52
2022/01/22 10:19:27;;;;;;;2.20;1.00;;;;;;;10.51;69.87;102752.94;4958070;28;97438;-52
2022/01/22 10:21:58;;;;;;;2.23;1.30;;;;;;;10.48;69.69;102751.09;4957719;28;97172;-53
2022/01/22 10:24:45;;;;;;;5.20;1.27;;;;;;;10.44;69.66;102736.69;4962916;28;98297;-51
2022/01/22 10:27:32;;;;;;;3.00;1.37;;;;;;;10.39;69.76;102740.75;4964704;28;96756;-51
2022/01/22 10:30:15;;;;;;;5.27;1.47;;;;;;;10.43;69.96;102740.63;4960766;28;96994;-53
2022/01/22 10:32:48;;;;;;;1.07;0.97;;;;;;;10.44;69.92;102748.44;4959025;28;97641;-51
2022/01/22 10:35:27;;;;;;;1.23;1.10;;;;;;;10.48;69.93;102751.84;4960111;28;99474;-51
2022/01/22 10:38:00;;;;;;;1.50;1.03;;;;;;;10.52;69.93;102749.78;4958045;28;96981;-51
2022/01/22 10:40:29;;;;;;;5.37;1.40;;;;;;;10.54;69.89;102746.56;4963301;28;97069;-52
2022/01/22 10:43:31;;;;;;;3.13;1.33;;;;;;;10.54;69.82;102744.59;4962413;28;97934;-51
2022/01/22 10:46:19;;;;;;;1.60;1.27;;;;;;;10.57;69.86;102735.44;4951424;28;100191;-53
2022/01/22 10:49:01;;;;;;;1.63;1.03;;;;;;;10.61;69.86;102743.59;4961756;28;96731;-51
2022/01/22 10:51:29;;;;;;;2.33;1.33;;;;;;;10.62;69.81;102741.59;4962260;28;97076;-51
2022/01/22 10:54:00;;;;;;;2.20;1.30;;;;;;;10.61;69.71;102751.09;4958482;28;96770;-52
2022/01/22 10:56:28;;;;;;;1.67;1.40;;;;;;;10.61;69.77;102746.34;4960244;28;97402;-52
2022/01/22 10:58:54;;;;;;;1.57;1.47;;;;;;;10.58;69.72;102755.47;4960638;28;97262;-51
2022/01/22 11:01:22;;;;;;;2.90;1.30;;;;;;;10.57;69.85;102751.94;4959292;28;97189;-52
2022/01/22 11:04:06;;;;;;;2.63;1.60;;;;;;;10.57;69.70;102756.72;4961078;28;97409;-51
2022/01/22 11:06:32;;;;;;;5.50;3.30;;;;;;;10.54;69.86;102758.34;4954369;28;100222;-54
2022/01/22 11:08:59;;;;;;;4.10;3.00;;;;;;;10.50;69.66;102760.47;4961073;28;96972;-51
2022/01/22 11:11:26;;;;;;;3.50;3.20;;;;;;;10.50;70.07;102754.19;4964853;28;97122;-52
2022/01/22 11:13:52;;;;;;;4.00;3.67;;;;;;;10.49;69.96;102752.63;4965449;28;97079;-51
2022/01/22 11:16:20;;;;;;;3.27;2.83;;;;;;;10.51;70.00;102753.72;4961541;28;97197;-53
2022/01/22 11:18:50;;;;;;;2.30;2.10;;;;;;;10.57;69.97;102749.19;4960282;28;96671;-51
2022/01/22 11:21:18;;;;;;;3.53;2.50;;;;;;;10.57;70.19;102762.97;4961353;28;96916;-57
2022/01/22 11:23:47;;;;;;;2.83;2.63;;;;;;;10.60;69.84;102753.06;4959724;28;97667;-52
2022/01/22 11:26:15;;;;;;;3.50;2.63;;;;;;;10.64;69.97;102750.22;4961796;28;101583;-53
2022/01/22 11:28:45;;;;;;;7.40;2.83;;;;;;;10.68;69.94;102753.63;4963620;28;97053;-52
2022/01/22 11:31:15;;;;;;;4.30;2.73;;;;;;;10.74;69.88;102762.84;4962544;28;97055;-53
2022/01/22 11:33:44;;;;;;;2.47;1.90;;;;;;;10.79;69.72;102756.81;4960185;28;97358;-54
2022/01/22 11:36:17;;;;;;;3.27;2.07;;;;;;;10.81;69.61;102755.13;4961201;28;97317;-53
2022/01/22 11:38:52;;;;;;;4.10;2.40;;;;;;;10.81;69.70;102754.38;4960919;28;98837;-51
2022/01/22 11:41:21;;;;;;;3.77;2.60;;;;;;;10.84;69.79;102756.22;4963434;28;97252;-53
2022/01/22 11:44:09;;;;;;;2.20;2.00;;;;;;;10.90;69.72;102751.72;4956821;28;96947;-54
2022/01/22 11:46:50;;;;;;;2.00;1.87;;;;;;;10.94;69.71;102752.38;4960018;28;100442;-52
2022/01/22 11:49:28;;;;;;;1.60;1.50;;;;;;;10.92;69.78;102750.03;4957693;28;97204;-55
2022/01/22 11:52:13;;;;;;;1.70;1.60;;;;;;;10.94;69.80;102755.13;4960663;28;96948;-53
2022/01/22 11:54:53;;;;;;;2.27;1.57;;;;;;;10.92;69.60;102754.81;4962636;28;102150;-52
2022/01/22 11:57:20;;;;;;;3.40;1.97;;;;;;;10.90;69.64;102760.72;4960951;28;101508;-53
2022/01/22 11:59:47;;;;;;;2.10;2.00;;;;;;;10.92;69.67;102760.31;4958471;28;97325;-54
2022/01/22 12:02:15;;;;;;;2.57;2.37;;;;;;;10.96;69.62;102761.75;4960011;28;97022;-52
2022/01/22 12:04:41;;;;;;;2.10;2.00;;;;;;;10.99;69.48;102773.84;4961280;28;98612;-53
2022/01/22 12:07:13;;;;;;;1.90;1.80;;;;;;;10.99;69.59;102760.06;4960049;28;97300;-58
2022/01/22 12:09:54;;;;;;;2.17;2.07;;;;;;;10.99;69.45;102763.59;4962031;28;98327;-51
2022/01/22 12:15:23;;;;;;;1.20;1.20;;;;;;;11.07;69.70;102764.88;4956713;28;102526;-52
2022/01/22 12:18:07;;;;;;;1.83;1.73;;;;;;;11.09;69.67;102759.72;4958091;28;96995;-52
2022/01/22 12:23:07;;;;;;;2.43;2.33;;;;;;;11.13;69.70;102762.34;4961014;28;96863;-55
2022/01/22 12:25:36;;;;;;;1.67;1.67;;;;;;;11.15;69.58;102771.72;4962016;28;101973;-54
2022/01/22 12:28:26;;;;;;;2.57;2.47;;;;;;;11.20;69.63;102773.16;4961226;28;97372;-58
2022/01/22 12:31:05;;;;;;;2.73;2.63;;;;;;;11.23;69.40;102786.00;4955408;28;97012;-51
2022/01/22 12:33:31;;;;;;;2.60;2.50;;;;;;;11.23;69.32;102778.53;4962105;28;96759;-51
2022/01/22 12:35:59;;;;;;;3.90;3.70;;;;;;;11.24;69.38;102784.81;4961149;28;97260;-51
2022/01/22 12:41:25;;;;;;;1.60;1.50;;;;;;;11.21;69.11;102783.72;4959829;28;97295;-52
2022/01/22 12:43:51;;;;;;;1.30;1.30;;;;;;;11.17;69.26;102776.78;4956614;28;97245;-54
2022/01/22 12:46:18;;;;;;;0.80;0.80;;;;;;;11.09;69.42;102784.53;4960235;28;96775;-52
2022/01/22 12:48:50;;;;;;;0.80;0.80;;;;;;;11.12;69.41;102778.09;4961600;28;97197;-51
2022/01/22 12:51:26;;;;;;;0.50;0.40;;;;;;;11.10;69.63;102779.75;4961467;28;97017;-54
2022/01/22 12:53:53;;;;;;;0.70;0.70;;;;;;;11.01;69.14;102776.91;4959823;28;96872;-51
2022/01/22 12:59:05;;;;;;;0.40;0.40;;;;;;;10.91;69.37;102780.78;4962647;28;97704;-54
2022/01/22 13:01:34;;;;;;;0.53;0.43;;;;;;;10.89;69.68;102780.47;4962076;28;96640;-54
2022/01/22 13:04:02;;;;;;;0.50;0.43;;;;;;;10.85;69.39;102777.06;4960472;28;96848;-52
2022/01/22 13:06:49;;;;;;;0.60;0.60;;;;;;;10.86;69.60;102779.38;4957177;28;97281;-51
2022/01/22 13:09:15;;;;;;;0.50;0.50;;;;;;;10.87;69.46;102775.41;4961328;28;100186;-53
2022/01/22 13:11:47;;;;;;;0.63;0.63;;;;;;;10.95;69.70;102773.97;4963185;28;97460;-51
2022/01/22 13:14:27;;;;;;;0.90;0.70;;;;;;;10.99;69.58;102771.06;4960348;28;97470;-53